Time;durP1;ratioP1;P1;durP2;ratioP2;P2;SDS_P1;SDS_P2;PMS_P1;PMS_P2;Temp;Humidity;BMP_temperature;BMP_pressure;BME280_temperature;BME280_humidity;BME280_pressure;Samples;Min_cycle;Max_cycle;Signal;HPM_P1;HPM_P2
2023/01/10 00:00:33;;;;;;;12.33;7.77;;;6.10;1.00;;;;;;5019239;28;20179;-79
2023/01/10 00:03:00;;;;;;;13.87;7.43;;;6.20;1.00;;;;;;5022336;28;21360;-80
2023/01/10 00:05:26;;;;;;;11.23;8.13;;;6.10;99.90;;;;;;5024430;28;20211;-79
2023/01/10 00:07:51;;;;;;;11.57;7.50;;;6.10;99.90;;;;;;5024333;28;20247;-79
2023/01/10 00:10:17;;;;;;;12.87;7.13;;;6.10;1.00;;;;;;5027203;28;20191;-80
2023/01/10 00:15:27;;;;;;;13.03;6.73;;;6.10;1.00;;;;;;5025029;28;20225;-79
2023/01/10 00:17:52;;;;;;;12.83;6.80;;;6.00;1.00;;;;;;5025220;28;20681;-79
2023/01/10 00:20:18;;;;;;;12.33;6.67;;;6.00;1.00;;;;;;5023726;28;20198;-79
2023/01/10 00:22:44;;;;;;;13.47;6.80;;;6.00;1.00;;;;;;5021149;28;20211;-80
2023/01/10 00:25:10;;;;;;;9.87;6.30;;;6.00;1.00;;;;;;5021030;28;20227;-80
2023/01/10 00:27:36;;;;;;;10.00;6.93;;;6.00;1.00;;;;;;5020590;28;20214;-79
2023/01/10 00:30:12;;;;;;;11.03;6.50;;;6.00;1.00;;;;;;5022159;28;20226;-79
2023/01/10 00:32:39;;;;;;;10.03;6.57;;;6.00;1.00;;;;;;5022038;28;20175;-80
2023/01/10 00:35:05;;;;;;;14.10;6.97;;;6.00;1.00;;;;;;5022696;28;20188;-78
2023/01/10 00:37:31;;;;;;;10.97;6.37;;;6.00;1.00;;;;;;5026721;28;20203;-79
2023/01/10 00:39:57;;;;;;;10.13;6.30;;;5.00;1.00;;;;;;5025771;28;20329;-79
2023/01/10 00:45:08;;;;;;;10.53;6.37;;;5.90;1.00;;;;;;5028320;28;20190;-80
2023/01/10 00:47:33;;;;;;;11.23;6.20;;;6.00;1.00;;;;;;5025361;28;20584;-79
2023/01/10 00:49:59;;;;;;;9.37;5.97;;;6.00;1.00;;;;;;5026095;28;20183;-80
2023/01/10 00:52:25;;;;;;;10.33;6.30;;;6.00;1.00;;;;;;5026789;28;20264;-80
2023/01/10 00:54:50;;;;;;;8.40;6.67;;;6.00;1.00;;;;;;5029937;28;20281;-79
2023/01/10 00:57:16;;;;;;;11.30;6.80;;;6.00;1.00;;;;;;5026434;28;20223;-78
2023/01/10 00:59:41;;;;;;;11.70;6.60;;;6.00;1.00;;;;;;5027865;28;20206;-79
2023/01/10 01:02:07;;;;;;;12.53;6.93;;;6.00;1.00;;;;;;5025842;28;20619;-80
2023/01/10 01:04:33;;;;;;;10.93;6.40;;;6.00;1.00;;;;;;5025774;28;20207;-79
2023/01/10 01:07:00;;;;;;;12.33;6.80;;;6.00;1.00;;;;;;5029618;28;20208;-80
2023/01/10 01:09:27;;;;;;;9.43;6.40;;;6.00;1.00;;;;;;5025662;28;20219;-78
2023/01/10 01:11:54;;;;;;;12.87;6.80;;;6.00;1.00;;;;;;5026701;28;20190;-79
2023/01/10 01:14:20;;;;;;;9.70;6.47;;;6.00;1.00;;;;;;5029912;28;20179;-79
2023/01/10 01:16:46;;;;;;;9.43;5.70;;;6.00;1.00;;;;;;5030090;28;20190;-79
2023/01/10 01:19:11;;;;;;;11.17;5.50;;;6.00;1.00;;;;;;5029376;28;20199;-79
2023/01/10 01:21:37;;;;;;;9.17;5.93;;;6.00;1.00;;;;;;5030790;28;20226;-79
2023/01/10 01:24:03;;;;;;;11.53;6.07;;;6.00;1.00;;;;;;5028655;28;20192;-80
2023/01/10 01:26:28;;;;;;;11.00;6.23;;;6.10;99.90;;;;;;5030235;28;20768;-78
2023/01/10 01:28:54;;;;;;;9.50;6.03;;;6.10;99.90;;;;;;5027492;28;20195;-79
2023/01/10 01:31:20;;;;;;;10.63;5.70;;;6.10;99.90;;;;;;5030782;28;20195;-80
2023/01/10 01:33:46;;;;;;;9.53;5.67;;;6.10;99.90;;;;;;5028437;28;20192;-78
2023/01/10 01:36:12;;;;;;;9.37;5.80;;;6.10;99.90;;;;;;5028317;28;20215;-80
2023/01/10 01:38:39;;;;;;;8.53;6.37;;;6.10;99.90;;;;;;5028574;28;20295;-79
2023/01/10 01:41:55;;;;;;;8.90;6.00;;;6.00;99.90;;;;;;5029576;28;20187;-80
2023/01/10 01:44:09;;;;;;;11.63;6.63;;;6.00;99.90;;;;;;5026315;28;20237;-79
2023/01/10 01:46:37;;;;;;;9.47;6.03;;;6.10;99.90;;;;;;5026879;28;20215;-79
2023/01/10 01:49:05;;;;;;;10.98;7.63;;;6.00;99.90;;;;;;5023639;28;20426;-79
2023/01/10 01:51:33;;;;;;;10.60;6.90;;;6.00;99.90;;;;;;5026946;28;20175;-81
2023/01/10 01:54:06;;;;;;;9.53;6.73;;;6.00;99.90;;;;;;5027421;28;20183;-80
2023/01/10 01:56:43;;;;;;;13.63;7.00;;;6.00;99.90;;;;;;5027830;28;20616;-80
2023/01/10 01:59:16;;;;;;;9.77;6.93;;;6.00;1.00;;;;;;5030608;28;20194;-80
2023/01/10 02:01:46;;;;;;;10.13;6.70;;;6.00;1.00;;;;;;5030159;28;20239;-80
2023/01/10 02:04:19;;;;;;;11.60;7.23;;;6.60;1.00;;;;;;5029524;28;20194;-78
2023/01/10 02:06:48;;;;;;;9.03;6.87;;;5.90;1.00;;;;;;5030866;28;20637;-79
2023/01/10 02:09:32;;;;;;;10.70;6.77;;;6.00;1.00;;;;;;5026404;28;20191;-81
2023/01/10 02:11:58;;;;;;;9.77;7.00;;;6.00;1.00;;;;;;5028725;28;20179;-80
2023/01/10 02:14:25;;;;;;;8.40;6.63;;;6.00;1.00;;;;;;5026290;28;20182;-79
2023/01/10 02:16:51;;;;;;;10.47;6.73;;;6.00;1.00;;;;;;5028894;28;20263;-80
2023/01/10 02:19:28;;;;;;;10.80;6.80;;;6.00;1.00;;;;;;5029895;28;20198;-79
2023/01/10 02:22:24;;;;;;;9.73;7.20;;;5.90;1.00;;;;;;5029650;28;20203;-78
2023/01/10 02:25:01;;;;;;;10.03;7.40;;;5.90;1.00;;;;;;5031610;28;20194;-79
2023/01/10 02:27:52;;;;;;;8.57;7.50;;;5.90;1.00;;;;;;5029131;28;20214;-79
2023/01/10 02:30:40;;;;;;;11.80;7.87;;;5.90;1.00;;;;;;5032194;28;20245;-80
2023/01/10 02:33:15;;;;;;;14.43;7.90;;;5.90;1.00;;;;;;5031541;28;20183;-80
2023/01/10 02:36:18;;;;;;;9.13;8.33;;;5.90;1.00;;;;;;5026561;28;20185;-81
2023/01/10 02:38:44;;;;;;;13.87;8.30;;;5.90;1.00;;;;;;5027910;28;20203;-80
2023/01/10 02:41:40;;;;;;;11.57;8.60;;;5.90;1.00;;;;;;5030717;28;20727;-79
2023/01/10 02:44:18;;;;;;;11.90;8.67;;;5.90;1.00;;;;;;5029733;28;20187;-79
2023/01/10 02:46:45;;;;;;;10.60;8.13;;;5.90;1.00;;;;;;5028132;28;20207;-80
2023/01/10 02:49:10;;;;;;;12.53;8.40;;;5.90;1.00;;;;;;5029667;28;20242;-80
2023/01/10 02:51:36;;;;;;;11.73;7.97;;;5.90;1.00;;;;;;5027160;28;20693;-80
2023/01/10 02:54:18;;;;;;;13.23;8.77;;;6.00;1.00;;;;;;5025259;28;20223;-79
2023/01/10 02:57:19;;;;;;;11.43;8.13;;;6.00;1.00;;;;;;5026035;28;20199;-79
2023/01/10 02:59:55;;;;;;;11.00;8.33;;;6.00;1.00;;;;;;5027445;28;20186;-80
2023/01/10 03:02:35;;;;;;;11.50;8.47;;;6.00;1.00;;;;;;5027120;28;20193;-79
2023/01/10 03:05:22;;;;;;;11.17;7.67;;;6.00;1.00;;;;;;5027063;28;20187;-80
2023/01/10 03:08:27;;;;;;;8.40;7.37;;;6.00;1.00;;;;;;5025475;28;20210;-80
2023/01/10 03:10:57;;;;;;;11.70;7.87;;;6.00;1.00;;;;;;5028570;28;20188;-80
2023/01/10 03:13:48;;;;;;;13.20;8.13;;;6.00;1.00;;;;;;5026838;28;20266;-80
2023/01/10 03:16:22;;;;;;;11.97;8.20;;;6.00;1.00;;;;;;5023630;28;20199;-80
2023/01/10 03:18:52;;;;;;;9.90;7.57;;;6.00;1.00;;;;;;5025174;28;20222;-80
2023/01/10 03:21:20;;;;;;;9.97;7.33;;;6.00;1.00;;;;;;5026243;28;20653;-80
2023/01/10 03:23:48;;;;;;;11.40;7.93;;;6.00;1.00;;;;;;5024504;28;20294;-81
2023/01/10 03:26:18;;;;;;;12.50;8.23;;;6.00;1.00;;;;;;5024497;28;20281;-80
2023/01/10 03:28:56;;;;;;;11.10;7.93;;;6.00;1.00;;;;;;5023239;28;20230;-79
2023/01/10 03:31:35;;;;;;;12.03;8.20;;;5.80;1.00;;;;;;5025627;28;20189;-80
2023/01/10 03:34:01;;;;;;;12.80;7.33;;;6.00;99.90;;;;;;5025951;28;20183;-78
2023/01/10 03:36:42;;;;;;;11.50;7.50;;;6.00;99.90;;;;;;5022749;28;20192;-79
2023/01/10 03:39:17;;;;;;;10.33;7.70;;;6.00;99.90;;;;;;5024878;28;20313;-79
2023/01/10 03:42:04;;;;;;;13.87;7.80;;;6.00;99.90;;;;;;5027509;28;20194;-79
2023/01/10 03:44:54;;;;;;;13.17;7.70;;;6.00;99.90;;;;;;5027997;28;20179;-80
2023/01/10 03:47:32;;;;;;;10.57;7.77;;;6.10;99.90;;;;;;5027159;28;20227;-79
2023/01/10 03:50:11;;;;;;;7.77;6.43;;;6.10;99.90;;;;;;5024742;28;20207;-80
2023/01/10 03:52:39;;;;;;;10.87;7.03;;;6.10;99.90;;;;;;5027305;28;20187;-80
2023/01/10 03:55:08;;;;;;;8.77;6.73;;;6.00;1.00;;;;;;5023658;28;20595;-80
2023/01/10 03:57:34;;;;;;;7.97;6.80;;;6.00;1.00;;;;;;5024801;28;20407;-80
2023/01/10 03:59:59;;;;;;;10.90;6.27;;;5.90;1.00;;;;;;5026062;28;20776;-80
2023/01/10 04:02:30;;;;;;;8.17;5.67;;;5.80;1.00;;;;;;5025310;28;20230;-79
2023/01/10 04:04:57;;;;;;;8.00;5.93;;;5.80;1.00;;;;;;5023351;28;20650;-80
2023/01/10 04:07:23;;;;;;;7.97;5.87;;;5.80;1.00;;;;;;5024966;28;20211;-80
2023/01/10 04:09:49;;;;;;;6.43;5.50;;;5.80;1.00;;;;;;5027039;28;20215;-80
2023/01/10 04:12:15;;;;;;;8.73;5.60;;;5.80;1.00;;;;;;5026209;28;20202;-81
2023/01/10 04:14:40;;;;;;;7.47;5.73;;;5.80;1.00;;;;;;5024877;28;20202;-80
2023/01/10 04:17:06;;;;;;;9.67;5.27;;;4.40;1.00;;;;;;5023013;28;20210;-80
2023/01/10 04:19:32;;;;;;;8.07;5.70;;;5.80;1.00;;;;;;5024573;28;20198;-80
2023/01/10 04:21:57;;;;;;;11.33;6.30;;;5.90;1.00;;;;;;5026485;28;20214;-80
2023/01/10 04:24:23;;;;;;;8.70;6.20;;;5.80;1.00;;;;;;5025145;28;20199;-80
2023/01/10 04:26:49;;;;;;;7.60;5.40;;;5.80;1.00;;;;;;5024051;28;20213;-80
2023/01/10 04:29:15;;;;;;;10.67;6.13;;;5.80;1.00;;;;;;5027342;28;20869;-79
2023/01/10 04:31:41;;;;;;;9.03;6.07;;;5.80;1.00;;;;;;5025343;28;20203;-80
2023/01/10 04:34:08;;;;;;;8.53;5.90;;;5.80;1.00;;;;;;5025307;28;20183;-79
2023/01/10 04:36:35;;;;;;;9.30;5.43;;;6.70;1.00;;;;;;5025789;28;20195;-79
2023/01/10 04:39:00;;;;;;;9.53;5.37;;;5.80;1.00;;;;;;5026112;28;20282;-80
2023/01/10 04:41:26;;;;;;;10.43;5.90;;;5.80;1.00;;;;;;5028517;28;20225;-79
2023/01/10 04:43:51;;;;;;;9.52;6.38;;;5.80;1.00;;;;;;5023350;28;20415;-80
2023/01/10 04:46:17;;;;;;;7.43;5.40;;;5.70;1.00;;;;;;5024540;28;20187;-80
2023/01/10 04:48:42;;;;;;;8.90;5.90;;;5.80;1.00;;;;;;5024795;28;20191;-80
2023/01/10 04:51:08;;;;;;;8.37;5.43;;;5.80;1.00;;;;;;5024683;28;20706;-80
2023/01/10 04:53:34;;;;;;;9.03;5.33;;;5.80;1.00;;;;;;5022684;28;20409;-79
2023/01/10 04:56:08;;;;;;;9.30;4.47;;;5.80;1.00;;;;;;5024880;28;20175;-80
2023/01/10 04:58:35;;;;;;;9.80;4.00;;;5.80;1.00;;;;;;5024687;28;20331;-80
2023/01/10 05:01:13;;;;;;;8.13;3.50;;;5.80;1.00;;;;;;5025391;28;20260;-81
2023/01/10 05:03:39;;;;;;;6.13;2.77;;;5.90;1.00;;;;;;5039507;28;20189;-80
2023/01/10 05:06:05;;;;;;;5.67;2.60;;;5.80;99.90;;;;;;5025671;28;20183;-79
2023/01/10 05:08:31;;;;;;;8.30;3.20;;;5.90;99.90;;;;;;5027434;28;20221;-78
2023/01/10 05:10:57;;;;;;;8.97;3.90;;;5.80;99.90;;;;;;5022902;28;20211;-80
2023/01/10 05:13:23;;;;;;;6.77;3.10;;;5.90;99.90;;;;;;5026770;28;20214;-80
2023/01/10 05:15:52;;;;;;;6.87;3.23;;;5.80;99.90;;;;;;5024670;28;20186;-80
2023/01/10 05:18:17;;;;;;;8.30;3.40;;;5.80;99.90;;;;;;5025597;28;20211;-79
2023/01/10 05:20:43;;;;;;;8.80;3.43;;;5.80;1.00;;;;;;5028063;28;20189;-80
2023/01/10 05:23:08;;;;;;;7.80;3.17;;;5.80;1.00;;;;;;5024603;28;20207;-80
2023/01/10 05:25:34;;;;;;;8.87;3.17;;;5.80;1.00;;;;;;5028511;28;20194;-80
2023/01/10 05:28:00;;;;;;;10.23;3.73;;;5.80;1.00;;;;;;5037238;28;20279;-79
2023/01/10 05:30:25;;;;;;;7.93;3.33;;;5.80;1.00;;;;;;5032266;28;20184;-80
2023/01/10 05:32:51;;;;;;;11.07;4.00;;;5.80;1.00;;;;;;5030687;28;20186;-79
2023/01/10 05:35:16;;;;;;;8.40;3.80;;;5.70;1.00;;;;;;5028821;28;20192;-80
2023/01/10 05:37:42;;;;;;;11.90;3.63;;;5.70;1.00;;;;;;5028868;28;20206;-80
2023/01/10 05:40:08;;;;;;;8.13;3.30;;;5.80;1.00;;;;;;5030516;28;20240;-79
2023/01/10 05:42:34;;;;;;;13.63;3.90;;;5.80;1.00;;;;;;5029002;28;20255;-79
2023/01/10 05:44:59;;;;;;;9.57;3.07;;;5.70;1.00;;;;;;5031990;28;20241;-79
2023/01/10 05:47:25;;;;;;;7.90;2.90;;;5.70;1.00;;;;;;5027452;28;20861;-80
2023/01/10 05:49:51;;;;;;;8.57;2.97;;;5.70;99.90;;;;;;5030144;28;20206;-80
2023/01/10 05:52:16;;;;;;;6.77;2.80;;;5.70;99.90;;;;;;5028098;28;20187;-80
2023/01/10 05:54:44;;;;;;;6.23;2.90;;;5.80;99.90;;;;;;5025145;28;21076;-79
2023/01/10 05:57:09;;;;;;;8.13;3.00;;;5.70;99.90;;;;;;5026452;28;20586;-77
2023/01/10 05:59:35;;;;;;;7.20;3.50;;;5.70;99.90;;;;;;5025339;28;20180;-79
2023/01/10 06:02:00;;;;;;;11.13;3.63;;;5.60;99.90;;;;;;5027959;28;20209;-79
2023/01/10 06:04:26;;;;;;;12.40;3.77;;;5.60;99.90;;;;;;5027390;28;20191;-81
2023/01/10 06:06:51;;;;;;;8.73;3.17;;;5.50;1.00;;;;;;5025895;28;20298;-79
2023/01/10 06:09:17;;;;;;;7.67;3.27;;;5.40;1.00;;;;;;5026069;28;20217;-80
2023/01/10 06:11:42;;;;;;;8.77;3.50;;;5.40;1.00;;;;;;5027167;28;20210;-78
2023/01/10 06:14:09;;;;;;;9.80;3.50;;;5.40;1.00;;;;;;5025164;28;20193;-81
2023/01/10 06:16:34;;;;;;;11.80;5.87;;;5.30;1.00;;;;;;5024944;28;20210;-79
2023/01/10 06:19:00;;;;;;;7.40;5.30;;;5.20;1.00;;;;;;5024208;28;20195;-80
2023/01/10 06:21:25;;;;;;;11.10;4.70;;;5.20;1.00;;;;;;5024282;28;20188;-80
2023/01/10 06:23:51;;;;;;;13.57;4.17;;;5.20;1.00;;;;;;5029627;28;20194;-80
2023/01/10 06:26:17;;;;;;;11.27;4.03;;;5.20;1.00;;;;;;5027906;28;20183;-80
2023/01/10 06:28:43;;;;;;;13.37;4.57;;;5.20;1.00;;;;;;5030452;28;20222;-80
2023/01/10 06:31:09;;;;;;;12.30;4.27;;;5.20;1.00;;;;;;5025295;28;20225;-79
2023/01/10 06:33:34;;;;;;;9.17;4.13;;;5.20;1.00;;;;;;5026007;28;20186;-79
2023/01/10 06:36:01;;;;;;;10.13;4.10;;;5.10;1.00;;;;;;5024013;28;20183;-78
2023/01/10 06:38:26;;;;;;;9.20;4.27;;;5.10;1.00;;;;;;5023564;28;20257;-78
2023/01/10 06:40:52;;;;;;;9.10;4.10;;;5.10;1.00;;;;;;5027213;28;20196;-80
2023/01/10 06:43:17;;;;;;;11.77;4.23;;;5.00;1.00;;;;;;5024977;28;20226;-79
2023/01/10 06:45:43;;;;;;;10.90;4.83;;;5.00;1.00;;;;;;5023782;28;20214;-80
2023/01/10 06:48:08;;;;;;;12.03;4.10;;;5.00;1.00;;;;;;5022730;28;20467;-78
2023/01/10 06:50:34;;;;;;;13.70;5.07;;;4.90;1.00;;;;;;5021580;28;20653;-78
2023/01/10 06:53:02;;;;;;;10.40;4.23;;;4.90;1.00;;;;;;5025514;28;20235;-79
2023/01/10 06:55:29;;;;;;;9.70;4.53;;;4.90;1.00;;;;;;5025716;28;20182;-79
2023/01/10 06:58:00;;;;;;;15.83;5.07;;;4.90;1.00;;;;;;5027065;28;20218;-80
2023/01/10 07:00:27;;;;;;;16.60;5.10;;;4.90;1.00;;;;;;5034089;28;20211;-79
2023/01/10 07:02:55;;;;;;;14.60;4.87;;;4.90;1.00;;;;;;5026673;28;20195;-79
2023/01/10 07:05:21;;;;;;;14.07;4.83;;;5.00;1.00;;;;;;5029079;28;20202;-78
2023/01/10 07:07:46;;;;;;;11.50;5.10;;;7.30;1.00;;;;;;5025476;28;20218;-80
2023/01/10 07:10:12;;;;;;;13.57;4.70;;;5.10;1.00;;;;;;5022962;28;20277;-79
2023/01/10 07:12:38;;;;;;;14.00;4.67;;;5.10;99.90;;;;;;5028280;28;20699;-79
2023/01/10 07:15:04;;;;;;;10.97;4.03;;;5.20;99.90;;;;;;5027460;28;20211;-79
2023/01/10 07:17:30;;;;;;;10.83;4.27;;;5.20;99.90;;;;;;5026861;28;20211;-79
2023/01/10 07:19:56;;;;;;;9.43;3.93;;;5.20;99.90;;;;;;5025471;28;20202;-81
2023/01/10 07:22:21;;;;;;;10.77;3.63;;;5.20;99.90;;;;;;5024801;28;20831;-80
2023/01/10 07:24:47;;;;;;;14.33;4.57;;;5.10;99.90;;;;;;5025048;28;20187;-81
2023/01/10 07:27:12;;;;;;;10.00;3.80;;;5.20;99.90;;;;;;5022699;28;20219;-80
2023/01/10 07:29:38;;;;;;;12.00;4.20;;;5.20;99.90;;;;;;5025586;28;20199;-80
2023/01/10 07:32:04;;;;;;;9.13;3.60;;;5.20;99.90;;;;;;5024064;28;20196;-80
2023/01/10 07:34:30;;;;;;;13.67;4.53;;;5.20;99.90;;;;;;5026557;28;20186;-80
2023/01/10 07:36:55;;;;;;;12.80;4.77;;;5.20;99.90;;;;;;5024340;28;20183;-80
2023/01/10 07:39:21;;;;;;;11.03;4.03;;;5.20;99.90;;;;;;5022235;28;20187;-80
2023/01/10 07:41:48;;;;;;;12.23;4.20;;;5.20;99.90;;;;;;5020832;28;20253;-79
2023/01/10 07:44:14;;;;;;;14.93;4.43;;;5.20;99.90;;;;;;5025048;28;20240;-80
2023/01/10 07:46:39;;;;;;;14.33;4.67;;;5.20;99.90;;;;;;5024765;28;20725;-80
2023/01/10 07:49:05;;;;;;;10.93;4.40;;;5.20;99.90;;;;;;5024295;28;20210;-79
2023/01/10 07:51:31;;;;;;;9.77;4.30;;;5.20;99.90;;;;;;5017422;28;20752;-81
2023/01/10 07:53:56;;;;;;;14.70;4.60;;;5.30;99.90;;;;;;5022744;28;20274;-80
2023/01/10 07:56:22;;;;;;;14.70;4.67;;;5.30;99.90;;;;;;5025974;28;20233;-80
2023/01/10 07:58:48;;;;;;;10.50;4.43;;;5.30;99.90;;;;;;5021473;28;20269;-83
2023/01/10 08:01:13;;;;;;;12.50;4.70;;;5.30;99.90;;;;;;5022636;28;20187;-80
2023/01/10 08:03:39;;;;;;;11.50;4.63;;;5.30;99.90;;;;;;5023972;28;21254;-80
2023/01/10 08:06:09;;;;;;;13.23;4.63;;;5.40;99.90;;;;;;5026485;28;20187;-79
2023/01/10 08:08:35;;;;;;;11.57;4.30;;;5.40;99.90;;;;;;5022944;28;20262;-79
2023/01/10 08:11:03;;;;;;;10.90;4.00;;;5.40;99.90;;;;;;5023893;28;20184;-79
2023/01/10 08:13:30;;;;;;;12.10;4.60;;;5.40;99.90;;;;;;5024646;28;20183;-80
2023/01/10 08:15:56;;;;;;;12.27;4.90;;;5.40;99.90;;;;;;5025289;28;20183;-80
2023/01/10 08:18:23;;;;;;;9.07;4.60;;;5.50;99.90;;;;;;5025222;28;20207;-81
2023/01/10 08:20:50;;;;;;;8.87;3.97;;;5.50;99.90;;;;;;5022975;28;20191;-78
2023/01/10 08:23:17;;;;;;;14.93;4.37;;;5.50;99.90;;;;;;5023559;28;20214;-80
2023/01/10 08:25:43;;;;;;;11.13;4.57;;;5.50;99.90;;;;;;5022667;28;20209;-80
2023/01/10 08:28:09;;;;;;;13.03;4.67;;;5.60;99.90;;;;;;5025677;28;20464;-80
2023/01/10 08:30:36;;;;;;;8.93;4.23;;;5.60;99.90;;;;;;5023432;28;20238;-80
2023/01/10 08:33:03;;;;;;;12.10;4.27;;;5.50;99.90;;;;;;5024135;28;20182;-80
2023/01/10 08:35:29;;;;;;;14.13;4.47;;;5.50;99.90;;;;;;5025084;28;20521;-79
2023/01/10 08:37:58;;;;;;;12.37;4.00;;;5.60;99.90;;;;;;5024098;28;20242;-80
2023/01/10 08:40:25;;;;;;;14.10;5.00;;;5.60;99.90;;;;;;5026537;28;20183;-80
2023/01/10 08:43:01;;;;;;;11.03;4.53;;;5.60;99.90;;;;;;5025219;28;20233;-81
2023/01/10 08:45:27;;;;;;;16.87;4.87;;;5.60;99.90;;;;;;5020179;28;20281;-80
2023/01/10 08:47:53;;;;;;;10.47;4.70;;;5.70;99.90;;;;;;5019713;28;20250;-80
2023/01/10 08:50:19;;;;;;;11.43;4.53;;;5.70;99.90;;;;;;5022835;28;20614;-80
2023/01/10 08:52:44;;;;;;;18.07;5.37;;;5.80;99.90;;;;;;5018126;28;20232;-82
2023/01/10 08:55:10;;;;;;;11.57;5.67;;;5.80;99.90;;;;;;5015781;28;20569;-82
2023/01/10 08:57:36;;;;;;;13.73;6.33;;;5.80;99.90;;;;;;5021801;28;20218;-79
2023/01/10 09:00:02;;;;;;;12.30;5.63;;;5.80;99.90;;;;;;5027989;28;20203;-79
2023/01/10 09:02:28;;;;;;;11.23;5.50;;;5.90;99.90;;;;;;5022864;28;20274;-80
2023/01/10 09:04:53;;;;;;;12.50;5.77;;;5.90;99.90;;;;;;5024642;28;20211;-82
2023/01/10 09:07:19;;;;;;;11.33;5.40;;;5.90;99.90;;;;;;5021380;28;20242;-83
2023/01/10 09:09:44;;;;;;;13.43;6.13;;;5.90;99.90;;;;;;5020709;28;20242;-82
2023/01/10 09:14:54;;;;;;;13.70;5.57;;;6.10;99.90;;;;;;5019963;28;20182;-79
2023/01/10 09:17:20;;;;;;;13.67;5.90;;;6.20;99.90;;;;;;5025160;28;20210;-80
2023/01/10 09:19:45;;;;;;;10.30;6.30;;;6.30;99.90;;;;;;5042227;28;20202;-80
2023/01/10 09:22:11;;;;;;;11.37;6.63;;;6.30;99.90;;;;;;5026251;28;20212;-80
2023/01/10 09:24:38;;;;;;;14.77;6.00;;;6.30;99.90;;;;;;5029197;28;20293;-80
2023/01/10 09:27:03;;;;;;;13.10;6.20;;;7.20;99.90;;;;;;5020980;28;20720;-79
2023/01/10 09:29:29;;;;;;;10.40;6.50;;;6.20;99.90;;;;;;5036214;28;20184;-80
2023/01/10 09:31:54;;;;;;;16.40;6.23;;;6.20;99.90;;;;;;5019152;28;20188;-78
2023/01/10 09:34:21;;;;;;;12.13;5.73;;;6.10;99.90;;;;;;5021134;28;20267;-78
2023/01/10 09:36:47;;;;;;;12.60;6.20;;;6.10;99.90;;;;;;5021845;28;20186;-79
2023/01/10 09:39:13;;;;;;;11.10;5.57;;;6.10;99.90;;;;;;5021626;28;20195;-79
2023/01/10 09:42:00;;;;;;;10.33;5.53;;;6.10;99.90;;;;;;5020287;28;20221;-79
2023/01/10 09:44:45;;;;;;;14.50;5.57;;;6.20;99.90;;;;;;5024633;28;20604;-81
2023/01/10 09:47:15;;;;;;;11.60;5.67;;;6.20;99.90;;;;;;5014093;28;20206;-80
2023/01/10 09:50:01;;;;;;;11.20;5.50;;;6.20;99.90;;;;;;5020837;28;20192;-79
2023/01/10 09:52:40;;;;;;;12.50;5.90;;;6.30;99.90;;;;;;5028952;28;20183;-77
2023/01/10 09:55:19;;;;;;;10.87;5.60;;;6.40;99.90;;;;;;5022390;28;20277;-79
2023/01/10 09:57:46;;;;;;;10.33;5.57;;;6.40;99.90;;;;;;5013976;28;20684;-79
2023/01/10 10:00:37;;;;;;;13.53;5.57;;;6.50;99.90;;;;;;5023158;28;20287;-81
2023/01/10 10:03:11;;;;;;;9.40;4.77;;;6.70;99.90;;;;;;4986115;28;20284;-78
2023/01/10 10:05:37;;;;;;;13.20;4.43;;;6.70;99.90;;;;;;5019548;28;20269;-81
2023/01/10 10:08:06;;;;;;;10.53;4.60;;;6.90;99.90;;;;;;5018493;28;20305;-78
2023/01/10 10:10:31;;;;;;;11.67;4.23;;;7.00;99.90;;;;;;5018089;28;20203;-79
2023/01/10 10:13:08;;;;;;;10.63;3.97;;;7.00;99.90;;;;;;5015762;28;20649;-79
2023/01/10 10:15:50;;;;;;;8.83;4.50;;;7.00;99.90;;;;;;5016947;28;20229;-84
2023/01/10 10:18:48;;;;;;;10.03;4.23;;;7.00;99.90;;;;;;5016342;28;20298;-83
2023/01/10 10:21:27;;;;;;;9.30;3.90;;;7.00;99.90;;;;;;5018370;28;20191;-81
2023/01/10 10:24:27;;;;;;;9.37;3.80;;;7.00;99.90;;;;;;5004684;28;20238;-80
2023/01/10 10:26:58;;;;;;;7.33;3.20;;;7.00;95.40;;;;;;5011658;28;20684;-79
2023/01/10 10:29:52;;;;;;;7.73;3.50;;;7.00;91.40;;;;;;5012836;28;20246;-78
2023/01/10 10:33:01;;;;;;;8.83;4.30;;;6.90;88.10;;;;;;5007143;28;20186;-80
2023/01/10 10:35:39;;;;;;;8.47;3.60;;;6.90;86.40;;;;;;5018392;28;20188;-81
2023/01/10 10:38:15;;;;;;;12.17;3.53;;;7.00;82.80;;;;;;5016525;28;20215;-80
2023/01/10 10:40:43;;;;;;;11.43;3.60;;;7.00;80.00;;;;;;5016558;28;20202;-81
2023/01/10 10:43:34;;;;;;;9.20;3.37;;;7.00;50.50;;;;;;5014925;28;21181;-78
2023/01/10 10:46:08;;;;;;;10.03;3.80;;;7.00;50.80;;;;;;5007197;28;20207;-81
2023/01/10 10:48:41;;;;;;;9.40;3.50;;;7.00;57.00;;;;;;5016860;28;20242;-79
2023/01/10 10:51:20;;;;;;;11.90;3.20;;;7.00;75.80;;;;;;5014517;28;20264;-81
2023/01/10 10:53:47;;;;;;;8.37;3.07;;;7.00;59.60;;;;;;5019504;28;20266;-80
2023/01/10 10:56:16;;;;;;;9.93;3.47;;;7.00;67.70;;;;;;5021774;28;20246;-80
2023/01/10 10:58:44;;;;;;;12.17;3.77;;;7.00;59.00;;;;;;5019924;28;20203;-77
2023/01/10 11:01:15;;;;;;;10.03;3.10;;;7.00;56.10;;;;;;5022537;28;20195;-78
2023/01/10 11:04:07;;;;;;;8.73;4.23;;;7.00;60.10;;;;;;5020016;28;20213;-79
2023/01/10 11:06:35;;;;;;;8.70;3.37;;;7.00;69.30;;;;;;5019569;28;20202;-78
2023/01/10 11:09:03;;;;;;;9.97;3.20;;;7.00;62.20;;;;;;5017138;28;20217;-80
2023/01/10 11:11:37;;;;;;;8.53;3.57;;;6.90;60.30;;;;;;5016991;28;20741;-80
2023/01/10 11:14:06;;;;;;;9.63;3.37;;;6.80;59.00;;;;;;5023692;28;20186;-80
2023/01/10 11:16:38;;;;;;;13.47;4.17;;;6.90;66.50;;;;;;5021682;28;20180;-77
2023/01/10 11:19:10;;;;;;;14.10;3.70;;;6.90;58.30;;;;;;5023532;28;20214;-80
2023/01/10 11:21:38;;;;;;;11.03;4.53;;;6.90;59.20;;;;;;5028403;28;20672;-80
2023/01/10 11:24:04;;;;;;;7.87;3.50;;;6.90;62.10;;;;;;5021126;28;20258;-77
2023/01/10 11:26:38;;;;;;;7.50;3.53;;;6.90;55.80;;;;;;5019410;28;20269;-80
2023/01/10 11:29:06;;;;;;;9.67;3.37;;;6.90;56.00;;;;;;5020709;28;20268;-79
2023/01/10 11:31:33;;;;;;;12.60;3.53;;;7.00;80.80;;;;;;5008911;28;20218;-81
2023/01/10 11:34:03;;;;;;;10.50;3.83;;;7.00;55.20;;;;;;5006206;28;20279;-81
2023/01/10 11:36:53;;;;;;;10.40;3.50;;;7.00;73.70;;;;;;5020509;28;20257;-83
2023/01/10 11:39:19;;;;;;;7.50;3.50;;;7.00;69.70;;;;;;5012297;28;20684;-85
2023/01/10 11:41:44;;;;;;;8.23;3.27;;;7.00;67.30;;;;;;5015371;28;20188;-85
2023/01/10 11:44:25;;;;;;;8.20;3.63;;;7.10;59.50;;;;;;5008495;28;20183;-82
2023/01/10 11:46:58;;;;;;;8.17;3.70;;;7.10;56.20;;;;;;5014228;28;20180;-83
2023/01/10 11:49:38;;;;;;;8.17;3.50;;;7.10;56.50;;;;;;5032181;28;20201;-80
2023/01/10 11:52:25;;;;;;;10.93;3.50;;;7.10;54.80;;;;;;5016253;28;20197;-83
2023/01/10 11:54:58;;;;;;;9.77;3.20;;;7.10;57.20;;;;;;5019213;28;20175;-82
2023/01/10 11:57:27;;;;;;;6.70;3.43;;;7.50;52.10;;;;;;5009626;28;20230;-83
2023/01/10 11:59:56;;;;;;;8.80;3.63;;;7.10;45.80;;;;;;5016952;28;21041;-83
2023/01/10 12:02:25;;;;;;;9.93;3.90;;;7.00;56.10;;;;;;5014185;28;20602;-83
2023/01/10 12:04:53;;;;;;;12.97;3.50;;;7.00;53.40;;;;;;5016131;28;20612;-84
2023/01/10 12:07:19;;;;;;;10.97;3.43;;;7.10;59.10;;;;;;5031997;28;20293;-82
2023/01/10 12:09:56;;;;;;;7.13;3.33;;;7.10;55.10;;;;;;5017310;28;20190;-82
2023/01/10 12:12:27;;;;;;;11.43;3.57;;;7.10;49.10;;;;;;5015818;28;20183;-79
2023/01/10 12:14:56;;;;;;;11.20;3.30;;;6.90;57.00;;;;;;5017024;28;20297;-79
2023/01/10 12:17:23;;;;;;;7.37;3.30;;;6.80;64.80;;;;;;5011906;28;20215;-79
2023/01/10 12:19:52;;;;;;;6.57;3.30;;;6.90;62.00;;;;;;5016760;28;20210;-78
2023/01/10 12:22:21;;;;;;;10.07;3.27;;;6.90;62.50;;;;;;5014667;28;20698;-80
2023/01/10 12:24:50;;;;;;;9.63;3.00;;;6.90;73.50;;;;;;5017199;28;20183;-81
2023/01/10 12:27:17;;;;;;;6.23;2.97;;;6.90;70.40;;;;;;5018831;28;20219;-81
2023/01/10 12:30:10;;;;;;;8.93;2.83;;;7.10;58.10;;;;;;5017607;28;20194;-80
2023/01/10 12:32:42;;;;;;;9.37;3.00;;;7.10;60.00;;;;;;5018773;28;20214;-77
2023/01/10 12:35:17;;;;;;;9.47;3.00;;;7.20;61.60;;;;;;5021156;28;20210;-79
2023/01/10 12:38:08;;;;;;;7.90;3.43;;;7.20;45.10;;;;;;5017742;28;20211;-79
2023/01/10 12:40:42;;;;;;;9.07;3.13;;;7.20;55.20;;;;;;5014894;28;20213;-78
2023/01/10 12:46:21;;;;;;;8.37;3.03;;;7.30;47.70;;;;;;5022914;28;20198;-78
2023/01/10 12:48:47;;;;;;;10.27;3.33;;;7.30;45.50;;;;;;5020121;28;20252;-80
2023/01/10 12:51:17;;;;;;;14.70;4.07;;;7.40;54.60;;;;;;5018923;28;20645;-78
2023/01/10 12:53:50;;;;;;;8.40;3.30;;;6.90;42.30;;;;;;5021550;28;20212;-81
2023/01/10 12:56:17;;;;;;;12.53;3.87;;;7.30;38.50;;;;;;5031851;28;20231;-81
2023/01/10 12:59:02;;;;;;;8.97;3.13;;;7.10;39.10;;;;;;5018869;28;20204;-79
2023/01/10 13:01:35;;;;;;;7.70;3.00;;;7.00;43.90;;;;;;5023015;28;20324;-80
2023/01/10 13:04:04;;;;;;;10.63;3.40;;;6.90;41.80;;;;;;5023754;28;20195;-80
2023/01/10 13:06:37;;;;;;;6.47;3.30;;;6.80;46.60;;;;;;5026287;28;20203;-79
2023/01/10 13:09:16;;;;;;;8.17;3.40;;;6.80;47.20;;;;;;5021991;28;20294;-80
2023/01/10 13:12:09;;;;;;;9.90;3.87;;;6.80;46.80;;;;;;5014679;28;20176;-80
2023/01/10 13:14:46;;;;;;;9.73;4.40;;;6.80;51.30;;;;;;5023806;28;20817;-79
2023/01/10 13:17:52;;;;;;;11.33;4.03;;;6.90;42.90;;;;;;5019930;28;20575;-79
2023/01/10 13:20:25;;;;;;;8.30;3.27;;;7.00;41.80;;;;;;4981530;28;20206;-78
2023/01/10 13:22:56;;;;;;;9.13;3.80;;;7.10;51.10;;;;;;5007575;28;20219;-78